sensor_id;sensor_type;location;lat;lon;timestamp;P1;durP1;ratioP1;P2;durP2;ratioP2
73841;SDS011;62184;52.006;5.924;2023-03-01T00:00:38;12.95;;;11.65;;
73841;SDS011;62184;52.006;5.924;2023-03-01T00:03:04;11.30;;;10.20;;
73841;SDS011;62184;52.006;5.924;2023-03-01T00:05:31;11.07;;;9.88;;
73841;SDS011;62184;52.006;5.924;2023-03-01T00:07:57;11.73;;;10.52;;
73841;SDS011;62184;52.006;5.924;2023-03-01T00:10:26;11.25;;;10.05;;
73841;SDS011;62184;52.006;5.924;2023-03-01T00:12:53;11.60;;;10.40;;
73841;SDS011;62184;52.006;5.924;2023-03-01T00:15:19;13.77;;;10.27;;
73841;SDS011;62184;52.006;5.924;2023-03-01T00:17:46;11.73;;;10.53;;
73841;SDS011;62184;52.006;5.924;2023-03-01T00:20:15;11.93;;;10.60;;
73841;SDS011;62184;52.006;5.924;2023-03-01T00:22:41;12.13;;;10.70;;
73841;SDS011;62184;52.006;5.924;2023-03-01T00:25:08;12.20;;;11.00;;
73841;SDS011;62184;52.006;5.924;2023-03-01T00:27:37;12.07;;;10.82;;
73841;SDS011;62184;52.006;5.924;2023-03-01T00:30:04;11.98;;;10.77;;
73841;SDS011;62184;52.006;5.924;2023-03-01T00:32:33;12.00;;;10.73;;
73841;SDS011;62184;52.006;5.924;2023-03-01T00:34:59;12.80;;;11.20;;
73841;SDS011;62184;52.006;5.924;2023-03-01T00:37:25;13.43;;;11.93;;
73841;SDS011;62184;52.006;5.924;2023-03-01T00:39:52;13.50;;;12.17;;
73841;SDS011;62184;52.006;5.924;2023-03-01T00:42:18;12.70;;;11.40;;
73841;SDS011;62184;52.006;5.924;2023-03-01T00:44:47;13.10;;;11.77;;
73841;SDS011;62184;52.006;5.924;2023-03-01T00:47:14;13.07;;;11.60;;
73841;SDS011;62184;52.006;5.924;2023-03-01T00:49:40;13.80;;;11.88;;
73841;SDS011;62184;52.006;5.924;2023-03-01T00:52:07;14.95;;;12.23;;
73841;SDS011;62184;52.006;5.924;2023-03-01T00:54:33;13.88;;;12.30;;
73841;SDS011;62184;52.006;5.924;2023-03-01T00:57:00;16.42;;;12.48;;
73841;SDS011;62184;52.006;5.924;2023-03-01T00:59:26;13.73;;;12.32;;
73841;SDS011;62184;52.006;5.924;2023-03-01T01:01:55;13.70;;;12.25;;
73841;SDS011;62184;52.006;5.924;2023-03-01T01:04:21;13.57;;;12.18;;
73841;SDS011;62184;52.006;5.924;2023-03-01T01:06:48;14.00;;;12.50;;
73841;SDS011;62184;52.006;5.924;2023-03-01T01:09:15;13.43;;;12.02;;
73841;SDS011;62184;52.006;5.924;2023-03-01T01:11:43;14.93;;;12.43;;
73841;SDS011;62184;52.006;5.924;2023-03-01T01:14:11;13.87;;;12.37;;
73841;SDS011;62184;52.006;5.924;2023-03-01T01:16:38;14.15;;;12.63;;
73841;SDS011;62184;52.006;5.924;2023-03-01T01:19:08;15.27;;;13.30;;
73841;SDS011;62184;52.006;5.924;2023-03-01T01:21:36;14.38;;;12.88;;
73841;SDS011;62184;52.006;5.924;2023-03-01T01:24:03;15.02;;;13.30;;
73841;SDS011;62184;52.006;5.924;2023-03-01T01:26:31;14.30;;;12.80;;
73841;SDS011;62184;52.006;5.924;2023-03-01T01:29:00;14.83;;;12.80;;
73841;SDS011;62184;52.006;5.924;2023-03-01T01:31:29;15.45;;;12.88;;
73841;SDS011;62184;52.006;5.924;2023-03-01T01:33:57;15.35;;;13.15;;
73841;SDS011;62184;52.006;5.924;2023-03-01T01:36:29;14.57;;;12.90;;
73841;SDS011;62184;52.006;5.924;2023-03-01T01:38:56;16.38;;;13.15;;
73841;SDS011;62184;52.006;5.924;2023-03-01T01:41:23;15.25;;;12.88;;
73841;SDS011;62184;52.006;5.924;2023-03-01T01:46:40;15.38;;;13.07;;
73841;SDS011;62184;52.006;5.924;2023-03-01T01:49:12;15.57;;;13.03;;
73841;SDS011;62184;52.006;5.924;2023-03-01T01:51:53;14.98;;;12.93;;
73841;SDS011;62184;52.006;5.924;2023-03-01T01:54:31;14.97;;;12.27;;
73841;SDS011;62184;52.006;5.924;2023-03-01T01:57:08;14.90;;;12.50;;
73841;SDS011;62184;52.006;5.924;2023-03-01T01:59:40;15.33;;;12.93;;
73841;SDS011;62184;52.006;5.924;2023-03-01T02:02:14;13.88;;;12.40;;
73841;SDS011;62184;52.006;5.924;2023-03-01T02:04:42;14.38;;;12.52;;
73841;SDS011;62184;52.006;5.924;2023-03-01T02:07:13;15.27;;;12.53;;
73841;SDS011;62184;52.006;5.924;2023-03-01T02:09:45;13.45;;;11.57;;
73841;SDS011;62184;52.006;5.924;2023-03-01T02:12:16;13.80;;;12.27;;
73841;SDS011;62184;52.006;5.924;2023-03-01T02:14:46;14.10;;;12.40;;
73841;SDS011;62184;52.006;5.924;2023-03-01T02:17:13;14.87;;;12.57;;
73841;SDS011;62184;52.006;5.924;2023-03-01T02:19:45;14.40;;;12.20;;
73841;SDS011;62184;52.006;5.924;2023-03-01T02:22:33;15.20;;;12.40;;
73841;SDS011;62184;52.006;5.924;2023-03-01T02:25:06;13.55;;;12.00;;
73841;SDS011;62184;52.006;5.924;2023-03-01T02:27:53;14.07;;;12.20;;
73841;SDS011;62184;52.006;5.924;2023-03-01T02:30:36;14.40;;;12.25;;
73841;SDS011;62184;52.006;5.924;2023-03-01T02:33:03;14.13;;;11.73;;
73841;SDS011;62184;52.006;5.924;2023-03-01T02:35:31;13.82;;;11.55;;
73841;SDS011;62184;52.006;5.924;2023-03-01T02:38:01;14.48;;;11.68;;
73841;SDS011;62184;52.006;5.924;2023-03-01T02:40:33;14.18;;;12.02;;
73841;SDS011;62184;52.006;5.924;2023-03-01T02:43:03;13.88;;;11.77;;
73841;SDS011;62184;52.006;5.924;2023-03-01T02:45:38;13.52;;;11.65;;
73841;SDS011;62184;52.006;5.924;2023-03-01T02:48:14;14.03;;;11.83;;
73841;SDS011;62184;52.006;5.924;2023-03-01T02:50:45;14.18;;;11.52;;
73841;SDS011;62184;52.006;5.924;2023-03-01T02:53:32;14.05;;;11.32;;
73841;SDS011;62184;52.006;5.924;2023-03-01T02:56:10;13.95;;;11.60;;
73841;SDS011;62184;52.006;5.924;2023-03-01T02:58:37;14.00;;;11.83;;
73841;SDS011;62184;52.006;5.924;2023-03-01T03:01:06;14.63;;;11.48;;
73841;SDS011;62184;52.006;5.924;2023-03-01T03:03:32;13.75;;;11.60;;
73841;SDS011;62184;52.006;5.924;2023-03-01T03:05:59;14.23;;;11.68;;
73841;SDS011;62184;52.006;5.924;2023-03-01T03:08:25;13.77;;;11.40;;
73841;SDS011;62184;52.006;5.924;2023-03-01T03:10:52;14.82;;;11.50;;
73841;SDS011;62184;52.006;5.924;2023-03-01T03:13:18;14.57;;;11.67;;
73841;SDS011;62184;52.006;5.924;2023-03-01T03:15:45;14.10;;;11.67;;
73841;SDS011;62184;52.006;5.924;2023-03-01T03:18:14;13.70;;;11.77;;
73841;SDS011;62184;52.006;5.924;2023-03-01T03:20:42;13.95;;;11.35;;
73841;SDS011;62184;52.006;5.924;2023-03-01T03:23:10;13.52;;;11.05;;
73841;SDS011;62184;52.006;5.924;2023-03-01T03:25:37;13.63;;;11.00;;
73841;SDS011;62184;52.006;5.924;2023-03-01T03:28:03;14.68;;;11.50;;
73841;SDS011;62184;52.006;5.924;2023-03-01T03:30:31;14.10;;;11.37;;
73841;SDS011;62184;52.006;5.924;2023-03-01T03:32:58;13.38;;;10.80;;
73841;SDS011;62184;52.006;5.924;2023-03-01T03:35:28;13.88;;;11.30;;
73841;SDS011;62184;52.006;5.924;2023-03-01T03:37:57;13.83;;;11.50;;
73841;SDS011;62184;52.006;5.924;2023-03-01T03:40:26;12.87;;;11.13;;
73841;SDS011;62184;52.006;5.924;2023-03-01T03:42:54;13.68;;;11.00;;
73841;SDS011;62184;52.006;5.924;2023-03-01T03:45:20;13.82;;;11.52;;
73841;SDS011;62184;52.006;5.924;2023-03-01T03:47:47;14.68;;;11.73;;
73841;SDS011;62184;52.006;5.924;2023-03-01T03:50:15;13.93;;;11.50;;
73841;SDS011;62184;52.006;5.924;2023-03-01T03:52:46;14.20;;;11.25;;
73841;SDS011;62184;52.006;5.924;2023-03-01T03:55:13;15.40;;;11.17;;
73841;SDS011;62184;52.006;5.924;2023-03-01T03:57:39;13.68;;;11.73;;
73841;SDS011;62184;52.006;5.924;2023-03-01T04:00:08;15.63;;;11.53;;
73841;SDS011;62184;52.006;5.924;2023-03-01T04:02:38;14.10;;;11.70;;
73841;SDS011;62184;52.006;5.924;2023-03-01T04:05:05;14.73;;;11.77;;
73841;SDS011;62184;52.006;5.924;2023-03-01T04:07:34;13.55;;;11.25;;
73841;SDS011;62184;52.006;5.924;2023-03-01T04:10:04;13.73;;;10.90;;
73841;SDS011;62184;52.006;5.924;2023-03-01T04:12:33;13.27;;;11.00;;
73841;SDS011;62184;52.006;5.924;2023-03-01T04:15:01;13.67;;;11.40;;
73841;SDS011;62184;52.006;5.924;2023-03-01T04:17:28;13.30;;;11.10;;
73841;SDS011;62184;52.006;5.924;2023-03-01T04:19:54;13.23;;;11.02;;
73841;SDS011;62184;52.006;5.924;2023-03-01T04:22:21;14.82;;;10.75;;
73841;SDS011;62184;52.006;5.924;2023-03-01T04:24:47;12.77;;;10.80;;
73841;SDS011;62184;52.006;5.924;2023-03-01T04:27:16;11.85;;;10.23;;
73841;SDS011;62184;52.006;5.924;2023-03-01T04:29:43;13.27;;;10.18;;
73841;SDS011;62184;52.006;5.924;2023-03-01T04:32:09;13.75;;;10.35;;
73841;SDS011;62184;52.006;5.924;2023-03-01T04:34:35;12.48;;;10.73;;
73841;SDS011;62184;52.006;5.924;2023-03-01T04:37:02;12.98;;;10.63;;
73841;SDS011;62184;52.006;5.924;2023-03-01T04:39:29;12.70;;;10.68;;
73841;SDS011;62184;52.006;5.924;2023-03-01T04:41:55;13.50;;;10.88;;
73841;SDS011;62184;52.006;5.924;2023-03-01T04:44:24;13.93;;;10.88;;
73841;SDS011;62184;52.006;5.924;2023-03-01T04:46:51;14.27;;;11.60;;
73841;SDS011;62184;52.006;5.924;2023-03-01T04:49:17;13.93;;;11.10;;
73841;SDS011;62184;52.006;5.924;2023-03-01T04:51:43;13.73;;;11.20;;
73841;SDS011;62184;52.006;5.924;2023-03-01T04:54:10;13.57;;;10.70;;
73841;SDS011;62184;52.006;5.924;2023-03-01T04:56:36;14.52;;;10.85;;
73841;SDS011;62184;52.006;5.924;2023-03-01T04:59:03;13.13;;;10.70;;
73841;SDS011;62184;52.006;5.924;2023-03-01T05:01:32;13.65;;;11.32;;
73841;SDS011;62184;52.006;5.924;2023-03-01T05:03:58;13.80;;;11.27;;
73841;SDS011;62184;52.006;5.924;2023-03-01T05:06:26;13.73;;;11.63;;
73841;SDS011;62184;52.006;5.924;2023-03-01T05:08:53;13.07;;;11.30;;
73841;SDS011;62184;52.006;5.924;2023-03-01T05:11:19;13.80;;;11.65;;
73841;SDS011;62184;52.006;5.924;2023-03-01T05:13:46;14.02;;;11.23;;
73841;SDS011;62184;52.006;5.924;2023-03-01T05:16:13;14.75;;;11.57;;
73841;SDS011;62184;52.006;5.924;2023-03-01T05:18:42;14.23;;;12.18;;
73841;SDS011;62184;52.006;5.924;2023-03-01T05:21:09;14.88;;;11.65;;
73841;SDS011;62184;52.006;5.924;2023-03-01T05:23:37;14.32;;;11.43;;
73841;SDS011;62184;52.006;5.924;2023-03-01T05:26:05;13.80;;;11.20;;
73841;SDS011;62184;52.006;5.924;2023-03-01T05:28:32;14.63;;;11.40;;
73841;SDS011;62184;52.006;5.924;2023-03-01T05:31:00;12.40;;;11.05;;
73841;SDS011;62184;52.006;5.924;2023-03-01T05:33:26;14.57;;;11.70;;
73841;SDS011;62184;52.006;5.924;2023-03-01T05:35:59;14.75;;;12.05;;
73841;SDS011;62184;52.006;5.924;2023-03-01T05:38:26;14.75;;;12.07;;
73841;SDS011;62184;52.006;5.924;2023-03-01T05:40:52;14.60;;;11.68;;
73841;SDS011;62184;52.006;5.924;2023-03-01T05:43:19;15.40;;;11.82;;
73841;SDS011;62184;52.006;5.924;2023-03-01T05:45:45;13.55;;;11.02;;
73841;SDS011;62184;52.006;5.924;2023-03-01T05:48:12;13.95;;;12.07;;
73841;SDS011;62184;52.006;5.924;2023-03-01T05:50:40;14.85;;;12.20;;
73841;SDS011;62184;52.006;5.924;2023-03-01T05:53:12;14.67;;;11.97;;
73841;SDS011;62184;52.006;5.924;2023-03-01T05:55:41;13.40;;;10.82;;
73841;SDS011;62184;52.006;5.924;2023-03-01T05:58:10;14.70;;;11.80;;
73841;SDS011;62184;52.006;5.924;2023-03-01T06:00:39;13.85;;;11.30;;
73841;SDS011;62184;52.006;5.924;2023-03-01T06:03:08;13.50;;;11.23;;
73841;SDS011;62184;52.006;5.924;2023-03-01T06:05:37;14.65;;;11.60;;
73841;SDS011;62184;52.006;5.924;2023-03-01T06:08:04;13.77;;;11.52;;
73841;SDS011;62184;52.006;5.924;2023-03-01T06:10:33;14.80;;;11.68;;
73841;SDS011;62184;52.006;5.924;2023-03-01T06:12:59;15.18;;;11.90;;
73841;SDS011;62184;52.006;5.924;2023-03-01T06:15:26;14.77;;;11.35;;
73841;SDS011;62184;52.006;5.924;2023-03-01T06:17:53;14.88;;;11.48;;
73841;SDS011;62184;52.006;5.924;2023-03-01T06:20:22;14.15;;;11.63;;
73841;SDS011;62184;52.006;5.924;2023-03-01T06:22:51;15.85;;;11.93;;
73841;SDS011;62184;52.006;5.924;2023-03-01T06:25:18;14.35;;;10.98;;
73841;SDS011;62184;52.006;5.924;2023-03-01T06:27:50;13.85;;;10.82;;
73841;SDS011;62184;52.006;5.924;2023-03-01T06:30:17;15.50;;;11.03;;
73841;SDS011;62184;52.006;5.924;2023-03-01T06:32:46;15.40;;;11.40;;
73841;SDS011;62184;52.006;5.924;2023-03-01T06:35:14;15.40;;;10.35;;
73841;SDS011;62184;52.006;5.924;2023-03-01T06:37:42;15.90;;;10.63;;
73841;SDS011;62184;52.006;5.924;2023-03-01T06:40:09;14.93;;;10.68;;
73841;SDS011;62184;52.006;5.924;2023-03-01T06:42:37;14.18;;;10.35;;
73841;SDS011;62184;52.006;5.924;2023-03-01T06:45:09;13.77;;;10.00;;
73841;SDS011;62184;52.006;5.924;2023-03-01T06:47:37;14.50;;;10.27;;
73841;SDS011;62184;52.006;5.924;2023-03-01T06:50:03;13.95;;;10.02;;
73841;SDS011;62184;52.006;5.924;2023-03-01T06:52:31;13.82;;;9.95;;
73841;SDS011;62184;52.006;5.924;2023-03-01T06:54:57;14.13;;;10.70;;
73841;SDS011;62184;52.006;5.924;2023-03-01T06:57:24;13.40;;;10.10;;
73841;SDS011;62184;52.006;5.924;2023-03-01T06:59:50;13.68;;;9.88;;
73841;SDS011;62184;52.006;5.924;2023-03-01T07:02:19;12.05;;;10.07;;
73841;SDS011;62184;52.006;5.924;2023-03-01T07:04:46;13.48;;;10.05;;
73841;SDS011;62184;52.006;5.924;2023-03-01T07:07:14;13.35;;;10.00;;
73841;SDS011;62184;52.006;5.924;2023-03-01T07:09:40;14.55;;;10.32;;
73841;SDS011;62184;52.006;5.924;2023-03-01T07:12:07;14.05;;;11.35;;
73841;SDS011;62184;52.006;5.924;2023-03-01T07:14:33;13.18;;;10.00;;
73841;SDS011;62184;52.006;5.924;2023-03-01T07:16:59;13.35;;;10.18;;
73841;SDS011;62184;52.006;5.924;2023-03-01T07:19:29;13.38;;;10.27;;
73841;SDS011;62184;52.006;5.924;2023-03-01T07:21:55;14.10;;;10.50;;
73841;SDS011;62184;52.006;5.924;2023-03-01T07:24:21;15.50;;;10.82;;
73841;SDS011;62184;52.006;5.924;2023-03-01T07:26:48;14.77;;;11.23;;
73841;SDS011;62184;52.006;5.924;2023-03-01T07:29:15;13.57;;;10.90;;
73841;SDS011;62184;52.006;5.924;2023-03-01T07:31:42;13.32;;;9.93;;
73841;SDS011;62184;52.006;5.924;2023-03-01T07:34:08;13.80;;;10.73;;
73841;SDS011;62184;52.006;5.924;2023-03-01T07:36:37;13.73;;;10.30;;
73841;SDS011;62184;52.006;5.924;2023-03-01T07:39:04;15.10;;;11.18;;
73841;SDS011;62184;52.006;5.924;2023-03-01T07:41:30;12.98;;;10.40;;
73841;SDS011;62184;52.006;5.924;2023-03-01T07:43:57;14.40;;;10.73;;
73841;SDS011;62184;52.006;5.924;2023-03-01T07:46:23;12.95;;;9.95;;
73841;SDS011;62184;52.006;5.924;2023-03-01T07:48:50;14.82;;;10.93;;
73841;SDS011;62184;52.006;5.924;2023-03-01T07:51:16;13.02;;;9.70;;
73841;SDS011;62184;52.006;5.924;2023-03-01T07:53:47;13.82;;;10.20;;
73841;SDS011;62184;52.006;5.924;2023-03-01T07:56:15;12.55;;;10.45;;
73841;SDS011;62184;52.006;5.924;2023-03-01T07:58:43;13.20;;;10.68;;
73841;SDS011;62184;52.006;5.924;2023-03-01T08:01:11;11.63;;;9.60;;
73841;SDS011;62184;52.006;5.924;2023-03-01T08:03:40;12.98;;;10.38;;
73841;SDS011;62184;52.006;5.924;2023-03-01T08:06:08;13.18;;;10.30;;
73841;SDS011;62184;52.006;5.924;2023-03-01T08:08:37;14.23;;;10.60;;
73841;SDS011;62184;52.006;5.924;2023-03-01T08:11:06;12.05;;;10.27;;
73841;SDS011;62184;52.006;5.924;2023-03-01T08:13:36;13.07;;;10.50;;
73841;SDS011;62184;52.006;5.924;2023-03-01T08:16:03;12.07;;;10.00;;
73841;SDS011;62184;52.006;5.924;2023-03-01T08:18:32;13.20;;;10.20;;
73841;SDS011;62184;52.006;5.924;2023-03-01T08:21:01;13.02;;;10.18;;
73841;SDS011;62184;52.006;5.924;2023-03-01T08:23:29;12.00;;;9.50;;
73841;SDS011;62184;52.006;5.924;2023-03-01T08:26:02;11.73;;;10.00;;
73841;SDS011;62184;52.006;5.924;2023-03-01T08:28:35;11.45;;;9.52;;
73841;SDS011;62184;52.006;5.924;2023-03-01T08:31:02;11.63;;;9.63;;
73841;SDS011;62184;52.006;5.924;2023-03-01T08:33:38;12.35;;;10.00;;
73841;SDS011;62184;52.006;5.924;2023-03-01T08:36:05;12.23;;;9.75;;
73841;SDS011;62184;52.006;5.924;2023-03-01T08:38:32;12.13;;;9.90;;
73841;SDS011;62184;52.006;5.924;2023-03-01T08:40:59;11.23;;;9.20;;
73841;SDS011;62184;52.006;5.924;2023-03-01T08:43:29;10.80;;;8.95;;
73841;SDS011;62184;52.006;5.924;2023-03-01T08:45:56;10.80;;;9.50;;
73841;SDS011;62184;52.006;5.924;2023-03-01T08:48:23;10.63;;;9.52;;
73841;SDS011;62184;52.006;5.924;2023-03-01T08:50:49;11.00;;;9.43;;
73841;SDS011;62184;52.006;5.924;2023-03-01T08:53:16;10.93;;;9.55;;
73841;SDS011;62184;52.006;5.924;2023-03-01T08:55:42;10.82;;;9.30;;
73841;SDS011;62184;52.006;5.924;2023-03-01T08:58:09;11.75;;;9.52;;
73841;SDS011;62184;52.006;5.924;2023-03-01T09:00:38;11.73;;;9.50;;
73841;SDS011;62184;52.006;5.924;2023-03-01T09:03:05;11.40;;;9.52;;
73841;SDS011;62184;52.006;5.924;2023-03-01T09:05:32;11.02;;;9.80;;
73841;SDS011;62184;52.006;5.924;2023-03-01T09:07:59;11.63;;;10.07;;
73841;SDS011;62184;52.006;5.924;2023-03-01T09:10:25;11.55;;;9.75;;
73841;SDS011;62184;52.006;5.924;2023-03-01T09:12:52;11.30;;;10.10;;
73841;SDS011;62184;52.006;5.924;2023-03-01T09:15:18;10.52;;;9.48;;
73841;SDS011;62184;52.006;5.924;2023-03-01T09:17:47;11.32;;;10.18;;
73841;SDS011;62184;52.006;5.924;2023-03-01T09:20:14;11.60;;;9.90;;
73841;SDS011;62184;52.006;5.924;2023-03-01T09:22:41;10.90;;;9.77;;
73841;SDS011;62184;52.006;5.924;2023-03-01T09:25:08;11.13;;;9.60;;
73841;SDS011;62184;52.006;5.924;2023-03-01T09:27:34;10.97;;;9.97;;
73841;SDS011;62184;52.006;5.924;2023-03-01T09:30:01;11.80;;;10.23;;
73841;SDS011;62184;52.006;5.924;2023-03-01T09:32:29;11.55;;;10.38;;
73841;SDS011;62184;52.006;5.924;2023-03-01T09:34:59;12.02;;;10.82;;
73841;SDS011;62184;52.006;5.924;2023-03-01T09:37:26;11.95;;;10.75;;
73841;SDS011;62184;52.006;5.924;2023-03-01T09:39:52;12.40;;;11.20;;
73841;SDS011;62184;52.006;5.924;2023-03-01T09:42:19;12.27;;;11.13;;
73841;SDS011;62184;52.006;5.924;2023-03-01T09:44:46;11.95;;;10.75;;
73841;SDS011;62184;52.006;5.924;2023-03-01T09:47:18;11.85;;;10.73;;
73841;SDS011;62184;52.006;5.924;2023-03-01T09:49:51;12.50;;;11.20;;
73841;SDS011;62184;52.006;5.924;2023-03-01T09:52:33;14.90;;;13.38;;
73841;SDS011;62184;52.006;5.924;2023-03-01T09:55:08;15.55;;;13.90;;
73841;SDS011;62184;52.006;5.924;2023-03-01T09:57:40;15.30;;;13.70;;
73841;SDS011;62184;52.006;5.924;2023-03-01T10:00:20;16.30;;;14.60;;
73841;SDS011;62184;52.006;5.924;2023-03-01T10:03:01;15.60;;;14.00;;
73841;SDS011;62184;52.006;5.924;2023-03-01T10:05:44;16.02;;;14.27;;
73841;SDS011;62184;52.006;5.924;2023-03-01T10:11:17;13.38;;;11.93;;
73841;SDS011;62184;52.006;5.924;2023-03-01T10:13:50;15.23;;;13.63;;
73841;SDS011;62184;52.006;5.924;2023-03-01T10:16:27;14.88;;;13.40;;
73841;SDS011;62184;52.006;5.924;2023-03-01T10:19:10;15.07;;;13.50;;
73841;SDS011;62184;52.006;5.924;2023-03-01T10:21:45;15.20;;;13.60;;
73841;SDS011;62184;52.006;5.924;2023-03-01T10:24:12;14.63;;;13.23;;
73841;SDS011;62184;52.006;5.924;2023-03-01T10:26:44;14.48;;;12.98;;
73841;SDS011;62184;52.006;5.924;2023-03-01T10:29:20;14.75;;;13.25;;
73841;SDS011;62184;52.006;5.924;2023-03-01T10:31:55;13.57;;;12.27;;
73841;SDS011;62184;52.006;5.924;2023-03-01T10:34:27;14.10;;;12.70;;
73841;SDS011;62184;52.006;5.924;2023-03-01T10:36:59;13.50;;;12.18;;
73841;SDS011;62184;52.006;5.924;2023-03-01T10:39:36;13.63;;;12.27;;
73841;SDS011;62184;52.006;5.924;2023-03-01T10:42:03;13.27;;;12.07;;
73841;SDS011;62184;52.006;5.924;2023-03-01T10:44:45;13.65;;;12.35;;
73841;SDS011;62184;52.006;5.924;2023-03-01T10:47:15;13.32;;;12.07;;
73841;SDS011;62184;52.006;5.924;2023-03-01T10:49:52;12.83;;;11.63;;
73841;SDS011;62184;52.006;5.924;2023-03-01T10:52:26;13.25;;;11.95;;
73841;SDS011;62184;52.006;5.924;2023-03-01T10:54:58;12.80;;;11.57;;
73841;SDS011;62184;52.006;5.924;2023-03-01T10:57:31;13.18;;;11.88;;
73841;SDS011;62184;52.006;5.924;2023-03-01T11:02:50;13.45;;;12.20;;
73841;SDS011;62184;52.006;5.924;2023-03-01T11:05:35;13.30;;;12.10;;
73841;SDS011;62184;52.006;5.924;2023-03-01T11:08:04;12.67;;;11.47;;
73841;SDS011;62184;52.006;5.924;2023-03-01T11:10:32;14.00;;;12.80;;
73841;SDS011;62184;52.006;5.924;2023-03-01T11:13:13;14.23;;;12.93;;
73841;SDS011;62184;52.006;5.924;2023-03-01T11:15:43;13.73;;;12.52;;
73841;SDS011;62184;52.006;5.924;2023-03-01T11:18:26;13.90;;;12.60;;
73841;SDS011;62184;52.006;5.924;2023-03-01T11:20:55;13.98;;;12.68;;
73841;SDS011;62184;52.006;5.924;2023-03-01T11:23:27;14.18;;;12.77;;
73841;SDS011;62184;52.006;5.924;2023-03-01T11:25:56;13.77;;;12.57;;
73841;SDS011;62184;52.006;5.924;2023-03-01T11:28:28;13.50;;;12.30;;
73841;SDS011;62184;52.006;5.924;2023-03-01T11:30:57;13.95;;;12.75;;
73841;SDS011;62184;52.006;5.924;2023-03-01T11:33:37;13.70;;;12.50;;
73841;SDS011;62184;52.006;5.924;2023-03-01T11:36:15;13.50;;;12.30;;
73841;SDS011;62184;52.006;5.924;2023-03-01T11:39:13;13.88;;;12.68;;
73841;SDS011;62184;52.006;5.924;2023-03-01T11:41:56;14.23;;;12.93;;
73841;SDS011;62184;52.006;5.924;2023-03-01T11:44:37;14.10;;;12.80;;
73841;SDS011;62184;52.006;5.924;2023-03-01T11:47:11;14.18;;;12.88;;
73841;SDS011;62184;52.006;5.924;2023-03-01T11:50:09;14.20;;;12.90;;
73841;SDS011;62184;52.006;5.924;2023-03-01T11:52:54;14.70;;;13.40;;
73841;SDS011;62184;52.006;5.924;2023-03-01T11:55:54;15.77;;;14.48;;
73841;SDS011;62184;52.006;5.924;2023-03-01T11:58:40;16.90;;;15.40;;
73841;SDS011;62184;52.006;5.924;2023-03-01T12:01:31;15.60;;;14.30;;
73841;SDS011;62184;52.006;5.924;2023-03-01T12:07:27;16.60;;;15.30;;
73841;SDS011;62184;52.006;5.924;2023-03-01T12:10:21;17.30;;;15.80;;
73841;SDS011;62184;52.006;5.924;2023-03-01T12:13:03;16.45;;;15.10;;
73841;SDS011;62184;52.006;5.924;2023-03-01T12:19:01;16.63;;;15.23;;
73841;SDS011;62184;52.006;5.924;2023-03-01T12:21:57;17.10;;;15.70;;
73841;SDS011;62184;52.006;5.924;2023-03-01T12:24:54;16.95;;;15.55;;
73841;SDS011;62184;52.006;5.924;2023-03-01T12:27:54;16.83;;;15.43;;
73841;SDS011;62184;52.006;5.924;2023-03-01T12:30:48;16.50;;;15.15;;
73841;SDS011;62184;52.006;5.924;2023-03-01T12:33:41;16.50;;;15.10;;
73841;SDS011;62184;52.006;5.924;2023-03-01T12:36:24;16.20;;;14.80;;
73841;SDS011;62184;52.006;5.924;2023-03-01T12:42:18;16.27;;;14.88;;
73841;SDS011;62184;52.006;5.924;2023-03-01T12:45:16;16.45;;;15.15;;
73841;SDS011;62184;52.006;5.924;2023-03-01T12:48:12;16.55;;;15.15;;
73841;SDS011;62184;52.006;5.924;2023-03-01T12:50:57;16.33;;;15.03;;
73841;SDS011;62184;52.006;5.924;2023-03-01T12:53:31;16.90;;;15.50;;
73841;SDS011;62184;52.006;5.924;2023-03-01T12:56:04;16.65;;;15.35;;
73841;SDS011;62184;52.006;5.924;2023-03-01T12:58:35;16.42;;;15.13;;
73841;SDS011;62184;52.006;5.924;2023-03-01T13:01:18;16.27;;;14.88;;
73841;SDS011;62184;52.006;5.924;2023-03-01T13:04:02;15.88;;;14.57;;
73841;SDS011;62184;52.006;5.924;2023-03-01T13:07:04;16.02;;;14.82;;
73841;SDS011;62184;52.006;5.924;2023-03-01T13:09:49;17.02;;;15.52;;
73841;SDS011;62184;52.006;5.924;2023-03-01T13:15:30;17.48;;;15.98;;
73841;SDS011;62184;52.006;5.924;2023-03-01T13:18:02;16.27;;;14.88;;
73841;SDS011;62184;52.006;5.924;2023-03-01T13:20:50;16.80;;;15.45;;
73841;SDS011;62184;52.006;5.924;2023-03-01T13:23:24;16.73;;;15.45;;
73841;SDS011;62184;52.006;5.924;2023-03-01T13:26:01;16.25;;;14.95;;
73841;SDS011;62184;52.006;5.924;2023-03-01T13:28:47;17.13;;;15.82;;
73841;SDS011;62184;52.006;5.924;2023-03-01T13:37:24;16.27;;;14.87;;
73841;SDS011;62184;52.006;5.924;2023-03-01T13:39:57;16.35;;;14.95;;
73841;SDS011;62184;52.006;5.924;2023-03-01T13:42:37;16.38;;;15.07;;
73841;SDS011;62184;52.006;5.924;2023-03-01T13:45:20;16.17;;;14.95;;
73841;SDS011;62184;52.006;5.924;2023-03-01T13:47:54;16.83;;;15.52;;
73841;SDS011;62184;52.006;5.924;2023-03-01T13:50:32;17.45;;;15.82;;
73841;SDS011;62184;52.006;5.924;2023-03-01T13:53:09;17.20;;;15.80;;
73841;SDS011;62184;52.006;5.924;2023-03-01T13:55:43;16.75;;;15.55;;
73841;SDS011;62184;52.006;5.924;2023-03-01T13:58:19;16.52;;;15.23;;
73841;SDS011;62184;52.006;5.924;2023-03-01T14:00:54;16.40;;;15.10;;
73841;SDS011;62184;52.006;5.924;2023-03-01T14:03:24;16.30;;;15.00;;
73841;SDS011;62184;52.006;5.924;2023-03-01T14:06:01;16.20;;;14.90;;
73841;SDS011;62184;52.006;5.924;2023-03-01T14:08:33;16.25;;;14.85;;
73841;SDS011;62184;52.006;5.924;2023-03-01T14:11:06;16.55;;;15.15;;
73841;SDS011;62184;52.006;5.924;2023-03-01T14:14:04;17.40;;;16.00;;
73841;SDS011;62184;52.006;5.924;2023-03-01T14:16:58;16.88;;;15.48;;
73841;SDS011;62184;52.006;5.924;2023-03-01T14:19:43;16.70;;;15.30;;
73841;SDS011;62184;52.006;5.924;2023-03-01T14:22:17;17.05;;;15.65;;
73841;SDS011;62184;52.006;5.924;2023-03-01T14:24:49;16.35;;;14.98;;
73841;SDS011;62184;52.006;5.924;2023-03-01T14:27:19;16.03;;;14.73;;
73841;SDS011;62184;52.006;5.924;2023-03-01T14:29:56;16.67;;;15.27;;
73841;SDS011;62184;52.006;5.924;2023-03-01T14:32:25;15.95;;;14.57;;
73841;SDS011;62184;52.006;5.924;2023-03-01T14:34:54;16.52;;;15.13;;
73841;SDS011;62184;52.006;5.924;2023-03-01T14:37:26;16.23;;;14.93;;
73841;SDS011;62184;52.006;5.924;2023-03-01T14:39:56;16.30;;;15.00;;
73841;SDS011;62184;52.006;5.924;2023-03-01T14:42:26;16.43;;;14.83;;
73841;SDS011;62184;52.006;5.924;2023-03-01T14:45:00;16.30;;;14.98;;
73841;SDS011;62184;52.006;5.924;2023-03-01T14:47:29;16.23;;;14.90;;
73841;SDS011;62184;52.006;5.924;2023-03-01T14:50:01;15.98;;;14.57;;
73841;SDS011;62184;52.006;5.924;2023-03-01T14:52:36;17.00;;;15.60;;
73841;SDS011;62184;52.006;5.924;2023-03-01T14:55:13;16.37;;;14.90;;
73841;SDS011;62184;52.006;5.924;2023-03-01T14:57:44;16.40;;;15.00;;
73841;SDS011;62184;52.006;5.924;2023-03-01T15:00:16;15.60;;;14.18;;
73841;SDS011;62184;52.006;5.924;2023-03-01T15:02:47;15.80;;;14.50;;
73841;SDS011;62184;52.006;5.924;2023-03-01T15:05:18;15.75;;;14.55;;
73841;SDS011;62184;52.006;5.924;2023-03-01T15:07:55;15.88;;;14.57;;
73841;SDS011;62184;52.006;5.924;2023-03-01T15:10:25;14.70;;;13.50;;
73841;SDS011;62184;52.006;5.924;2023-03-01T15:12:55;14.60;;;13.30;;
73841;SDS011;62184;52.006;5.924;2023-03-01T15:15:36;14.57;;;13.38;;